Архив погоды в Агзу

Метеограмма Агзу
Воскресенье, 19 Мая
Время местн. Темп Ветер Видим Явления Облачность нижн/средн/верх Атм. давл. Влжн Точка росы ВНГО R Сост. почвы Tg s
Напр Скр Прв ур.ст ур.м изм
19:00 +20.2° штиль 0 - более 50 км - облачно 744 758 -0.6 53% +10.2° 1.5 км 0 - - -
16:00 - +21.6° С-З 1 - - - - 744 759 +0.1 36% +6.1° - - - - -
13:00 +22.9° З,Ю-З 1 - 50 км - облачно 744 759 -0.8 28% +3.5° 1.5 км - - - -
10:00 - +19.5° С 1 - - - - 745 760 0 39% +5.2° - - - - -
07:00 +13.6° штиль 0 - более 50 км - облачно 745 760 +3 70% +8.2° 1.5 км 0 Влажная (без луж) +9° -
04:00 - +10.2° З,Ю-З 1 - - - - 742 757 +1.4 84% +7.7° - - - - -
01:00 +11.5° В 2 - 20 км - облачно 741 756 -0.3 77% +7.7° 1.5 км - - - -
Суббота, 18 Мая
Время местн. Темп Ветер Видим Явления Облачность нижн/средн/верх Атм. давл. Влжн Точка росы ВНГО R Сост. почвы Tg s
Напр Скр Прв ур.ст ур.м изм
22:00 - +14.3° В 2 - - - - 741 756 +1.1 66% +8° - - - - -
19:00 +24° Ю-В 3 - 50 км - облачно 740 754 -0.8 39% +9.1° 1.5 км 0 - - -
16:00 - +27.1° Ю 2 - - - - 741 755 -2.5 37% +11.3° - - - - -
13:00 +24.4° Ю 1 - более 50 км - облачно 743 757 -1.5 47% +12.2° 1.5 км - - - -
10:00 - +13.7° штиль 0 - - - - 745 760 -0.6 82% +10.6° - - - - -
07:00 +8.9° штиль 0 - 20 км - облачно 745 760 -0.2 97% +8.5° 200 м 0.5 Влажная (без луж) +8° -
04:00 - +8° штиль 0 - - - - 745 761 +0.2 97% +7.6° - - - - -
01:00 +8.7° В 2 - 20 км - облачно 745 760 +0.2 93% +7.7° 600 м - - - -
Пятница, 17 Мая
Время местн. Темп Ветер Видим Явления Облачность нижн/средн/верх Атм. давл. Влжн Точка росы ВНГО R Сост. почвы Tg s
Напр Скр Прв ур.ст ур.м изм
22:00 - +10° В,Ю-В 2 - - - - 745 760 +1.1 90% +8.4° - - - - -
19:00 +14.5° Ю-В 1 11 более 50 км - облачно 744 759 +0.8 70% +9° 1.5 км 0 - - -
16:00 - +15.8° Ю 4 - - - - 743 758 -0.8 64% +9° - - - - -
13:00 +11.2° Ю 2 - 50 км - облачно 745 760 -0.8 78% +7.5° 1 км - - - -
10:00 - +9.2° Ю-В 2 - - - - 746 761 -0.2 86% +6.9° - - - - -
07:00 +8.2° штиль 0 - 50 км - облачно 746 761 -0.1 93% +7.2° 600 м 3 Влажная (без луж) - -
04:00 - +8° Ю-В 2 - - - - 746 762 -0.7 93% +7° - - - - -
01:00 +7.9° В 2 - 10 км слабый ливневый дождь облачно 747 762 +0.5 96% +7.3° 1 км - - - -
Четверг, 16 Мая
Время местн. Темп Ветер Видим Явления Облачность нижн/средн/верх Атм. давл. Влжн Точка росы ВНГО R Сост. почвы Tg s
Напр Скр Прв ур.ст ур.м изм
22:00 - +8.8° В,Ю-В 2 - - - - 746 762 +1.4 84% +6.3° - - - - -
19:00 +9° Ю 4 12 более 50 км - облачно 745 760 +0.1 81% +5.9° 1 км 0 - - -
16:00 - +12.2° Ю,Ю-В 6 - - - - 745 760 -0.3 67% +6.3° - - - - -